createdAt,value
2023-09-20T00:02:13.854Z,14.70
2023-09-20T00:04:41.798Z,14.70
2023-09-20T00:07:08.549Z,15.10
2023-09-20T00:09:35.842Z,14.80
2023-09-20T00:12:02.857Z,14.90
2023-09-20T00:14:30.441Z,14.80
2023-09-20T00:16:58.723Z,15.40
2023-09-20T00:19:25.717Z,14.80
2023-09-20T00:21:52.452Z,14.80
2023-09-20T00:24:19.281Z,14.80
2023-09-20T00:26:46.041Z,14.80
2023-09-20T00:29:13.463Z,14.80
2023-09-20T00:31:40.664Z,14.80
2023-09-20T00:34:07.485Z,14.90
2023-09-20T00:36:34.233Z,14.80
2023-09-20T00:39:05.117Z,15.80
2023-09-20T00:41:33.289Z,14.80
2023-09-20T00:44:01.513Z,14.90
2023-09-20T00:46:29.171Z,14.80
2023-09-20T00:48:57.001Z,15.10
2023-09-20T00:51:27.333Z,14.90
2023-09-20T00:53:58.554Z,14.90
2023-09-20T00:56:25.910Z,14.90
2023-09-20T00:58:54.744Z,14.90
2023-09-20T01:01:22.610Z,15.60
2023-09-20T01:03:49.780Z,14.80
2023-09-20T01:06:19.002Z,14.90
2023-09-20T01:08:47.998Z,14.80
2023-09-20T01:11:16.938Z,14.90
2023-09-20T01:13:45.329Z,15.00
2023-09-20T01:16:14.401Z,17.50
2023-09-20T01:18:41.470Z,14.90
2023-09-20T01:21:08.477Z,14.90
2023-09-20T01:23:36.489Z,14.70
2023-09-20T01:26:05.135Z,15.70
2023-09-20T01:28:32.032Z,14.70
2023-09-20T01:31:01.614Z,14.70
2023-09-20T01:33:28.719Z,14.60
2023-09-20T01:35:55.604Z,14.50
2023-09-20T01:38:22.429Z,14.40
2023-09-20T01:40:49.486Z,14.30
2023-09-20T01:43:16.310Z,14.20
2023-09-20T01:45:46.248Z,14.10
2023-09-20T01:48:14.086Z,14.00
2023-09-20T01:50:43.792Z,13.90
2023-09-20T01:53:12.639Z,13.90
2023-09-20T01:55:43.987Z,13.80
2023-09-20T01:58:15.193Z,13.80
2023-09-20T02:00:42.920Z,14.00
2023-09-20T02:03:16.132Z,13.70
2023-09-20T02:05:45.194Z,13.90
2023-09-20T02:08:11.980Z,13.70
2023-09-20T02:10:39.599Z,13.80
2023-09-20T02:13:07.261Z,13.60
2023-09-20T02:15:42.032Z,13.60
2023-09-20T02:18:10.481Z,13.50
2023-09-20T02:20:39.698Z,13.50
2023-09-20T02:23:09.310Z,13.50
2023-09-20T02:25:36.549Z,13.50
2023-09-20T02:28:04.824Z,13.50
2023-09-20T02:30:37.322Z,13.50
2023-09-20T02:33:07.139Z,13.60
2023-09-20T02:35:35.533Z,13.50
2023-09-20T02:38:06.265Z,13.70
2023-09-20T02:40:36.885Z,13.70
2023-09-20T02:43:04.917Z,13.50
2023-09-20T02:45:34.639Z,13.60
2023-09-20T02:48:08.129Z,15.40
2023-09-20T02:50:36.546Z,13.50
2023-09-20T02:53:05.176Z,13.50
2023-09-20T02:55:34.886Z,13.50
2023-09-20T02:58:01.729Z,13.50
2023-09-20T03:00:31.981Z,13.50
2023-09-20T03:03:02.831Z,13.50
2023-09-20T03:05:35.376Z,14.40
2023-09-20T03:08:05.747Z,13.60
2023-09-20T03:10:39.205Z,13.50
2023-09-20T03:13:07.362Z,14.00
2023-09-20T03:15:37.406Z,13.60
2023-09-20T03:18:06.556Z,13.60
2023-09-20T03:20:34.266Z,13.60
2023-09-20T03:23:04.620Z,13.50
2023-09-20T03:25:37.473Z,13.60
2023-09-20T03:28:06.160Z,13.60
2023-09-20T03:30:38.895Z,13.60
2023-09-20T03:33:08.197Z,13.60
2023-09-20T03:35:35.779Z,13.70
2023-09-20T03:38:05.926Z,13.60
2023-09-20T03:40:33.398Z,14.00
2023-09-20T03:43:00.357Z,13.70
2023-09-20T03:45:29.456Z,13.70
2023-09-20T03:47:58.929Z,13.70
2023-09-20T03:50:30.147Z,13.70
2023-09-20T03:52:57.200Z,13.70
2023-09-20T03:55:24.685Z,13.70
2023-09-20T03:57:52.066Z,13.70
2023-09-20T04:00:26.173Z,13.70
2023-09-20T04:02:55.141Z,13.80
2023-09-20T04:05:38.979Z,13.80
2023-09-20T04:08:09.643Z,15.10
2023-09-20T04:10:36.703Z,13.80
2023-09-20T04:13:07.590Z,13.80
2023-09-20T04:15:34.723Z,15.30
2023-09-20T04:18:09.509Z,13.90
2023-09-20T04:20:36.986Z,13.90
2023-09-20T04:23:04.717Z,13.90
2023-09-20T04:25:31.554Z,13.90
2023-09-20T04:27:58.562Z,14.80
2023-09-20T04:30:30.230Z,14.00
2023-09-20T04:32:57.218Z,14.00
2023-09-20T04:35:24.243Z,14.00
2023-09-20T04:37:51.144Z,14.00
2023-09-20T04:40:18.063Z,14.00
2023-09-20T04:42:45.140Z,14.00
2023-09-20T04:45:16.161Z,14.10
2023-09-20T04:47:44.131Z,14.10
2023-09-20T04:50:13.411Z,14.10
2023-09-20T04:52:42.549Z,14.10
2023-09-20T04:55:11.680Z,14.10
2023-09-20T04:57:38.841Z,14.10
2023-09-20T05:00:08.808Z,15.00
2023-09-20T05:02:35.838Z,14.10
2023-09-20T05:05:05.281Z,14.10
2023-09-20T05:07:32.408Z,14.10
2023-09-20T05:09:59.223Z,14.20
2023-09-20T05:12:26.301Z,14.20
2023-09-20T05:14:53.371Z,14.10
2023-09-20T05:17:20.240Z,14.20
2023-09-20T05:19:47.524Z,14.20
2023-09-20T05:22:14.375Z,14.20
2023-09-20T05:24:41.119Z,14.20
2023-09-20T05:27:08.081Z,15.50
2023-09-20T05:29:38.058Z,14.30
2023-09-20T05:32:05.361Z,14.30
2023-09-20T05:34:32.220Z,14.30
2023-09-20T05:36:59.023Z,14.30
2023-09-20T05:39:25.827Z,14.40
2023-09-20T05:41:52.782Z,15.30
2023-09-20T05:44:20.541Z,15.10
2023-09-20T05:46:50.899Z,14.50
2023-09-20T05:49:18.292Z,14.50
2023-09-20T05:51:45.744Z,14.60
2023-09-20T05:54:13.109Z,14.70
2023-09-20T05:56:40.120Z,14.80
2023-09-20T05:59:09.573Z,14.90
2023-09-20T06:01:41.085Z,14.90
2023-09-20T06:04:11.104Z,15.00
2023-09-20T06:06:38.830Z,15.30
2023-09-20T06:09:06.497Z,15.20
2023-09-20T06:11:33.574Z,15.30
2023-09-20T06:14:00.467Z,15.50
2023-09-20T06:16:27.576Z,16.60
2023-09-20T06:19:04.936Z,16.60
2023-09-20T06:21:33.533Z,15.90
2023-09-20T06:24:00.964Z,16.10
2023-09-20T06:26:28.651Z,18.50
2023-09-20T06:28:56.577Z,16.30
2023-09-20T06:31:23.402Z,16.50
2023-09-20T06:33:51.064Z,16.50
2023-09-20T06:36:19.439Z,16.60
2023-09-20T06:38:48.473Z,16.70
2023-09-20T06:41:16.459Z,18.20
2023-09-20T06:43:43.830Z,16.80
2023-09-20T06:46:11.613Z,17.10
2023-09-20T06:48:39.380Z,16.90
2023-09-20T06:51:09.767Z,16.90
2023-09-20T06:53:38.751Z,17.00
2023-09-20T06:56:06.028Z,17.00
2023-09-20T06:58:35.610Z,17.10
2023-09-20T07:01:04.581Z,18.00
2023-09-20T07:03:33.784Z,17.30
2023-09-20T07:06:04.109Z,17.30
2023-09-20T07:08:32.897Z,17.40
2023-09-20T07:10:59.749Z,17.30
2023-09-20T07:13:27.788Z,17.40
2023-09-20T07:16:05.883Z,17.40
2023-09-20T07:18:37.566Z,17.40
2023-09-20T07:21:05.890Z,17.50
2023-09-20T07:23:32.918Z,17.40
2023-09-20T07:26:00.604Z,17.50
2023-09-20T07:28:27.650Z,17.50
2023-09-20T07:30:56.547Z,17.90
2023-09-20T07:33:31.398Z,17.60
2023-09-20T07:36:06.915Z,17.50
2023-09-20T07:38:36.581Z,17.60
2023-09-20T07:41:14.833Z,17.60
2023-09-20T07:43:49.030Z,17.70
2023-09-20T07:46:16.784Z,17.70
2023-09-20T07:48:52.096Z,17.80
2023-09-20T07:51:27.099Z,17.70
2023-09-20T07:53:57.899Z,17.80
2023-09-20T07:56:25.432Z,17.90
2023-09-20T07:58:55.158Z,17.90
2023-09-20T08:01:24.015Z,17.90
2023-09-20T08:03:55.465Z,17.80
2023-09-20T08:06:26.874Z,17.80
2023-09-20T08:08:53.798Z,17.90
2023-09-20T08:11:22.399Z,17.90
2023-09-20T08:13:54.501Z,17.90
2023-09-20T08:16:23.130Z,17.80
2023-09-20T08:19:09.826Z,17.90
2023-09-20T08:21:37.747Z,17.90
2023-09-20T08:24:24.601Z,17.90
2023-09-20T08:27:11.252Z,18.00
2023-09-20T08:29:59.701Z,18.20
2023-09-20T08:32:46.566Z,18.40
2023-09-20T08:35:32.539Z,18.40
2023-09-20T08:38:18.359Z,18.50
2023-09-20T08:41:04.629Z,18.60
2023-09-20T08:43:50.246Z,18.60
2023-09-20T08:46:37.594Z,18.60
2023-09-20T08:49:25.923Z,18.60
2023-09-20T08:52:24.051Z,18.60
2023-09-20T08:55:09.460Z,18.70
2023-09-20T08:57:55.707Z,18.60
2023-09-20T09:00:25.772Z,18.70
2023-09-20T09:02:55.439Z,18.70
2023-09-20T09:05:24.793Z,18.80
2023-09-20T09:07:51.817Z,18.80
2023-09-20T09:10:19.431Z,19.00
2023-09-20T09:12:47.181Z,19.10
2023-09-20T09:15:22.011Z,19.10
2023-09-20T09:17:49.228Z,19.20
2023-09-20T09:20:20.444Z,19.30
2023-09-20T09:22:47.513Z,19.40
2023-09-20T09:25:20.007Z,19.20
2023-09-20T09:27:49.991Z,19.20
2023-09-20T09:30:18.479Z,19.20
2023-09-20T09:32:50.345Z,19.20
2023-09-20T09:35:27.699Z,19.80
2023-09-20T09:38:03.702Z,19.20
2023-09-20T09:40:30.872Z,19.20
2023-09-20T09:43:12.878Z,19.30
2023-09-20T09:45:40.210Z,19.40
2023-09-20T09:48:08.649Z,19.50
2023-09-20T09:50:40.072Z,19.50
2023-09-20T09:53:09.852Z,19.50
2023-09-20T09:55:38.958Z,19.90
2023-09-20T09:58:06.024Z,19.50
2023-09-20T10:00:37.793Z,19.40
2023-09-20T10:03:26.447Z,19.30
2023-09-20T10:06:02.924Z,19.40
2023-09-20T10:08:35.628Z,19.50
2023-09-20T10:11:03.353Z,19.50
2023-09-20T10:13:31.989Z,20.30
2023-09-20T10:16:02.434Z,19.20
2023-09-20T10:18:33.617Z,19.20
2023-09-20T10:21:12.188Z,19.20
2023-09-20T10:23:39.751Z,19.20
2023-09-20T10:26:20.681Z,19.20
2023-09-20T10:28:51.064Z,19.30
2023-09-20T10:31:19.135Z,19.50
2023-09-20T10:33:49.886Z,19.60
2023-09-20T10:36:23.669Z,19.80
2023-09-20T10:39:23.199Z,19.80
2023-09-20T10:41:52.727Z,19.90
2023-09-20T10:44:30.930Z,20.50
2023-09-20T10:47:02.006Z,20.00
2023-09-20T10:49:49.181Z,20.10
2023-09-20T10:52:39.632Z,20.20
2023-09-20T10:55:41.250Z,20.30
2023-09-20T10:58:08.730Z,21.50
2023-09-20T11:00:36.455Z,20.40
2023-09-20T11:03:11.002Z,21.10
2023-09-20T11:05:39.665Z,20.40
2023-09-20T11:08:10.388Z,20.50
2023-09-20T11:10:40.983Z,20.50
2023-09-20T11:13:12.000Z,20.50
2023-09-20T11:15:48.166Z,20.50
2023-09-20T11:18:21.134Z,20.40
2023-09-20T11:20:51.349Z,20.50
2023-09-20T11:23:18.548Z,20.40
2023-09-20T11:25:45.580Z,20.30
2023-09-20T11:28:14.063Z,20.60
2023-09-20T11:30:49.654Z,20.30
2023-09-20T11:33:33.058Z,20.40
2023-09-20T11:36:00.325Z,20.30
2023-09-20T11:38:28.059Z,20.40
2023-09-20T11:40:55.026Z,20.40
2023-09-20T11:43:22.239Z,20.40
2023-09-20T11:46:01.071Z,20.30
2023-09-20T11:48:33.271Z,20.30
2023-09-20T11:51:06.305Z,20.30
2023-09-20T11:53:33.954Z,20.10
2023-09-20T11:56:09.160Z,20.00
2023-09-20T11:58:38.151Z,19.90
2023-09-20T12:01:12.552Z,20.00
2023-09-20T12:03:40.006Z,19.90
2023-09-20T12:06:09.876Z,19.80
2023-09-20T12:08:36.871Z,19.90
2023-09-20T12:11:07.222Z,20.50
2023-09-20T12:13:33.960Z,19.80
2023-09-20T12:16:04.018Z,19.60
2023-09-20T12:18:35.196Z,19.50
2023-09-20T12:21:02.127Z,19.50
2023-09-20T12:23:29.065Z,19.30
2023-09-20T12:25:59.067Z,19.40
2023-09-20T12:28:29.262Z,19.60
2023-09-20T12:30:59.441Z,19.60
2023-09-20T12:33:26.982Z,19.80
2023-09-20T12:35:55.259Z,19.80
2023-09-20T12:38:23.315Z,19.90
2023-09-20T12:40:50.776Z,20.10
2023-09-20T12:43:17.590Z,20.10
2023-09-20T12:45:47.807Z,20.00
2023-09-20T12:48:15.212Z,19.90
2023-09-20T12:50:43.941Z,19.80
2023-09-20T12:53:11.273Z,19.80
2023-09-20T12:55:40.231Z,19.70
2023-09-20T12:58:08.663Z,19.70
2023-09-20T13:00:46.521Z,19.80
2023-09-20T13:03:14.994Z,19.90
2023-09-20T13:05:44.636Z,19.80
2023-09-20T13:08:12.078Z,19.80
2023-09-20T13:10:39.410Z,19.80
2023-09-20T13:13:10.019Z,20.00
2023-09-20T13:15:40.289Z,19.80
2023-09-20T13:18:08.141Z,17.50
2023-09-20T13:20:38.547Z,19.80
2023-09-20T13:23:08.927Z,20.40
2023-09-20T13:25:36.389Z,19.80
2023-09-20T13:28:05.503Z,19.80
2023-09-20T13:30:32.971Z,20.00
2023-09-20T13:33:02.116Z,20.20
2023-09-20T13:35:29.200Z,20.30
2023-09-20T13:37:56.173Z,20.60
2023-09-20T13:40:25.123Z,20.90
2023-09-20T13:42:51.962Z,21.10
2023-09-20T13:45:19.879Z,21.20
2023-09-20T13:47:50.618Z,21.30
2023-09-20T13:50:18.213Z,21.20
2023-09-20T13:52:49.181Z,22.10
2023-09-20T13:55:25.961Z,21.20
2023-09-20T13:57:55.705Z,21.10
2023-09-20T14:00:22.705Z,21.10
2023-09-20T14:02:49.721Z,21.00
2023-09-20T14:05:17.630Z,21.10
2023-09-20T14:07:48.942Z,21.30
2023-09-20T14:10:21.250Z,21.20
2023-09-20T14:12:48.687Z,21.10
2023-09-20T14:15:19.999Z,21.90
2023-09-20T14:17:48.420Z,20.90
2023-09-20T14:20:28.320Z,20.80
2023-09-20T14:22:56.108Z,20.70
2023-09-20T14:25:24.435Z,20.60
2023-09-20T14:27:52.440Z,20.50
2023-09-20T14:30:22.642Z,20.40
2023-09-20T14:32:52.456Z,20.30
2023-09-20T14:35:19.468Z,20.30
2023-09-20T14:37:52.447Z,20.30
2023-09-20T14:40:23.582Z,20.10
2023-09-20T14:42:53.584Z,20.00
2023-09-20T14:45:22.811Z,19.90
2023-09-20T14:47:53.411Z,19.80
2023-09-20T14:50:21.280Z,19.80
2023-09-20T14:52:49.154Z,19.70
2023-09-20T14:55:19.740Z,19.70
2023-09-20T14:57:56.383Z,20.20
2023-09-20T15:00:25.591Z,19.50
2023-09-20T15:02:55.560Z,19.50
2023-09-20T15:05:23.150Z,19.40
2023-09-20T15:07:54.884Z,19.40
2023-09-20T15:10:23.877Z,19.30
2023-09-20T15:12:59.497Z,19.30
2023-09-20T15:15:37.026Z,19.30
2023-09-20T15:18:06.177Z,19.40
2023-09-20T15:20:33.282Z,19.30
2023-09-20T15:23:01.318Z,19.30
2023-09-20T15:25:31.408Z,19.30
2023-09-20T15:27:59.516Z,19.20
2023-09-20T15:30:26.712Z,19.10
2023-09-20T15:32:53.835Z,19.10
2023-09-20T15:35:21.024Z,19.50
2023-09-20T15:37:49.354Z,19.00
2023-09-20T15:40:17.542Z,19.00
2023-09-20T15:42:46.973Z,18.90
2023-09-20T15:45:18.107Z,18.90
2023-09-20T15:47:45.673Z,18.80
2023-09-20T15:50:16.400Z,18.80
2023-09-20T15:52:43.378Z,18.80
2023-09-20T15:55:16.484Z,18.80
2023-09-20T15:57:47.498Z,18.70
2023-09-20T16:00:16.208Z,18.70
2023-09-20T16:02:44.444Z,18.60
2023-09-20T16:05:12.414Z,18.60
2023-09-20T16:07:42.138Z,18.70
2023-09-20T16:10:14.584Z,18.70
2023-09-20T16:12:46.132Z,18.40
2023-09-20T16:15:14.845Z,18.40
2023-09-20T16:17:42.186Z,18.30
2023-09-20T16:20:09.667Z,18.30
2023-09-20T16:22:36.698Z,18.30
2023-09-20T16:25:04.534Z,18.30
2023-09-20T16:27:32.061Z,18.20
2023-09-20T16:29:59.588Z,18.20
2023-09-20T16:32:26.686Z,18.30
2023-09-20T16:34:53.936Z,18.20
2023-09-20T16:37:21.121Z,18.20
2023-09-20T16:39:47.939Z,18.30
2023-09-20T16:42:14.740Z,18.10
2023-09-20T16:44:43.367Z,18.10
2023-09-20T16:47:11.133Z,18.10
2023-09-20T16:49:38.195Z,18.40
2023-09-20T16:52:05.688Z,18.10
2023-09-20T16:54:33.194Z,18.00
2023-09-20T16:57:00.410Z,18.00
2023-09-20T16:59:27.741Z,18.00
2023-09-20T17:01:58.135Z,18.10
2023-09-20T17:04:27.154Z,18.00
2023-09-20T17:06:54.153Z,18.00
2023-09-20T17:09:24.259Z,18.00
2023-09-20T17:11:51.817Z,18.00
2023-09-20T17:14:19.212Z,17.90
2023-09-20T17:16:46.213Z,18.00
2023-09-20T17:19:13.075Z,17.90
2023-09-20T17:21:41.690Z,17.90
2023-09-20T17:24:10.605Z,17.90
2023-09-20T17:26:40.779Z,17.80
2023-09-20T17:29:07.533Z,17.80
2023-09-20T17:31:37.904Z,17.80
2023-09-20T17:34:07.001Z,17.80
2023-09-20T17:36:36.065Z,17.80
2023-09-20T17:39:05.588Z,17.80
2023-09-20T17:41:32.460Z,17.70
2023-09-20T17:43:59.918Z,17.80
2023-09-20T17:46:27.322Z,17.80
2023-09-20T17:48:55.251Z,17.70
2023-09-20T17:51:22.250Z,17.70
2023-09-20T17:53:49.116Z,17.70
2023-09-20T17:56:20.395Z,17.70
2023-09-20T17:58:47.932Z,17.70
2023-09-20T18:01:15.631Z,18.40
2023-09-20T18:03:43.506Z,17.70
2023-09-20T18:06:14.263Z,18.40
2023-09-20T18:08:42.120Z,17.70
2023-09-20T18:11:12.485Z,17.70
2023-09-20T18:13:41.284Z,17.70
2023-09-20T18:16:13.025Z,17.70
2023-09-20T18:18:40.748Z,17.70
2023-09-20T18:21:13.231Z,17.70
2023-09-20T18:23:41.777Z,17.70
2023-09-20T18:26:16.759Z,17.70
2023-09-20T18:28:45.133Z,17.70
2023-09-20T18:31:17.073Z,18.00
2023-09-20T18:33:49.543Z,17.70
2023-09-20T18:36:18.400Z,17.70
2023-09-20T18:38:46.329Z,17.70
2023-09-20T18:41:16.228Z,18.30
2023-09-20T18:43:47.116Z,17.70
2023-09-20T18:46:15.546Z,18.60
2023-09-20T18:48:43.058Z,17.60
2023-09-20T18:51:10.451Z,17.60
2023-09-20T18:53:37.467Z,17.60
2023-09-20T18:56:04.736Z,18.00
2023-09-20T18:58:34.560Z,17.60
2023-09-20T19:01:11.744Z,17.60
2023-09-20T19:03:38.626Z,17.60
2023-09-20T19:06:05.598Z,17.60
2023-09-20T19:08:32.587Z,17.60
2023-09-20T19:10:59.581Z,17.60
2023-09-20T19:13:28.980Z,17.60
2023-09-20T19:15:56.610Z,18.50
2023-09-20T19:18:24.345Z,17.60
2023-09-20T19:20:52.149Z,17.60
2023-09-20T19:23:18.972Z,17.60
2023-09-20T19:25:47.332Z,17.70
2023-09-20T19:28:14.650Z,17.70
2023-09-20T19:30:41.672Z,17.60
2023-09-20T19:33:08.818Z,17.70
2023-09-20T19:35:38.670Z,17.70
2023-09-20T19:38:05.953Z,17.70
2023-09-20T19:40:32.909Z,18.10
2023-09-20T19:42:59.845Z,17.70
2023-09-20T19:45:27.918Z,17.70
2023-09-20T19:47:55.944Z,17.70
2023-09-20T19:50:23.780Z,18.40
2023-09-20T19:52:51.073Z,17.70
2023-09-20T19:55:26.125Z,17.70
2023-09-20T19:57:54.401Z,17.70
2023-09-20T20:00:29.509Z,17.70
2023-09-20T20:02:58.529Z,18.40
2023-09-20T20:05:26.664Z,17.70
2023-09-20T20:07:58.926Z,17.70
2023-09-20T20:10:28.169Z,17.70
2023-09-20T20:12:58.033Z,17.70
2023-09-20T20:15:34.714Z,17.80
2023-09-20T20:18:03.362Z,17.80
2023-09-20T20:20:34.342Z,17.80
2023-09-20T20:23:02.729Z,17.80
2023-09-20T20:25:40.618Z,17.80
2023-09-20T20:28:27.335Z,17.80
2023-09-20T20:30:54.180Z,17.80
2023-09-20T20:33:21.041Z,17.80
2023-09-20T20:35:48.999Z,17.80
2023-09-20T20:38:19.688Z,17.80
2023-09-20T20:40:47.122Z,17.80
2023-09-20T20:43:15.272Z,17.80
2023-09-20T20:45:45.258Z,17.80
2023-09-20T20:48:13.543Z,17.80
2023-09-20T20:50:42.247Z,17.80
2023-09-20T20:53:14.202Z,17.80
2023-09-20T20:55:42.659Z,18.10
2023-09-20T20:58:14.348Z,17.80
2023-09-20T21:00:52.101Z,18.50
2023-09-20T21:03:21.005Z,17.80
2023-09-20T21:05:50.440Z,18.10
2023-09-20T21:08:18.749Z,17.80
2023-09-20T21:10:46.139Z,18.50
2023-09-20T21:13:13.655Z,17.90
2023-09-20T21:15:41.923Z,18.60
2023-09-20T21:18:18.167Z,18.00
2023-09-20T21:20:54.045Z,18.00
2023-09-20T21:23:20.916Z,17.90
2023-09-20T21:25:50.600Z,18.00
2023-09-20T21:28:17.604Z,17.90
2023-09-20T21:30:48.028Z,17.80
2023-09-20T21:33:15.061Z,17.90
2023-09-20T21:35:42.545Z,17.90
2023-09-20T21:38:09.445Z,18.00
2023-09-20T21:40:39.316Z,17.90
2023-09-20T21:43:09.911Z,17.90
2023-09-20T21:45:37.860Z,17.90
2023-09-20T21:48:05.973Z,17.90
2023-09-20T21:50:33.108Z,17.90
2023-09-20T21:53:00.770Z,18.00
2023-09-20T21:55:30.189Z,17.90
2023-09-20T21:57:57.595Z,17.90
2023-09-20T22:00:30.706Z,17.90
2023-09-20T22:03:00.391Z,17.90
2023-09-20T22:05:31.283Z,17.90
2023-09-20T22:08:01.632Z,17.90
2023-09-20T22:10:33.873Z,17.90
2023-09-20T22:13:02.198Z,17.90
2023-09-20T22:15:29.081Z,17.90
2023-09-20T22:17:59.715Z,17.90
2023-09-20T22:20:26.893Z,17.90
2023-09-20T22:22:58.208Z,17.90
2023-09-20T22:25:26.061Z,19.80
2023-09-20T22:27:54.601Z,17.90
2023-09-20T22:30:21.829Z,17.90
2023-09-20T22:32:50.939Z,17.90
2023-09-20T22:35:22.090Z,19.40
2023-09-20T22:37:51.281Z,18.60
2023-09-20T22:40:21.940Z,18.00
2023-09-20T22:42:50.435Z,17.90
2023-09-20T22:45:28.224Z,18.00
2023-09-20T22:48:01.005Z,18.00
2023-09-20T22:50:32.173Z,18.00
2023-09-20T22:53:07.353Z,18.00
2023-09-20T22:55:38.249Z,19.20
2023-09-20T22:58:05.062Z,18.00
2023-09-20T23:00:34.582Z,18.00
2023-09-20T23:03:01.995Z,18.50
2023-09-20T23:05:29.387Z,17.90
2023-09-20T23:07:56.612Z,17.90
2023-09-20T23:10:33.134Z,17.90
2023-09-20T23:13:04.128Z,17.90
2023-09-20T23:15:36.914Z,17.90
2023-09-20T23:18:04.385Z,17.90
2023-09-20T23:20:38.290Z,17.90
2023-09-20T23:23:07.270Z,17.90
2023-09-20T23:25:45.350Z,19.00
2023-09-20T23:28:15.504Z,17.90
2023-09-20T23:30:47.661Z,17.90
2023-09-20T23:33:16.200Z,18.00
2023-09-20T23:35:54.934Z,18.40
2023-09-20T23:38:26.359Z,17.90
2023-09-20T23:40:53.428Z,17.90
2023-09-20T23:43:20.831Z,17.90
2023-09-20T23:45:48.118Z,17.80
2023-09-20T23:48:18.851Z,17.80
2023-09-20T23:50:47.022Z,18.10
2023-09-20T23:53:14.611Z,17.80
2023-09-20T23:55:44.454Z,17.80
2023-09-20T23:58:13.109Z,17.80
